sensor_id;sensor_type;location;lat;lon;timestamp;pressure;altitude;pressure_sealevel;temperature;humidity
64679;BME280;51094;53.864;27.676;2023-05-07T00:00:35;100450.75;;;4.06;47.69
64679;BME280;51094;53.864;27.676;2023-05-07T00:03:02;100449.84;;;4.08;47.05
64679;BME280;51094;53.864;27.676;2023-05-07T00:05:29;100460.84;;;4.15;47.61
64679;BME280;51094;53.864;27.676;2023-05-07T00:07:56;100448.81;;;4.15;47.25
64679;BME280;51094;53.864;27.676;2023-05-07T00:10:25;100457.59;;;4.07;46.34
64679;BME280;51094;53.864;27.676;2023-05-07T00:12:52;100442.97;;;4.09;46.62
64679;BME280;51094;53.864;27.676;2023-05-07T00:15:19;100420.34;;;3.87;46.79
64679;BME280;51094;53.864;27.676;2023-05-07T00:17:46;100416.97;;;3.85;46.60
64679;BME280;51094;53.864;27.676;2023-05-07T00:20:13;100373.91;;;3.58;46.84
64679;BME280;51094;53.864;27.676;2023-05-07T00:22:40;100400.28;;;3.66;47.28
64679;BME280;51094;53.864;27.676;2023-05-07T00:25:07;100214.69;;;2.45;47.19
64679;BME280;51094;53.864;27.676;2023-05-07T00:27:34;100398.97;;;3.50;47.40
64679;BME280;51094;53.864;27.676;2023-05-07T00:30:03;100455.47;;;3.90;47.17
64679;BME280;51094;53.864;27.676;2023-05-07T00:32:30;100306.00;;;2.95;47.49
64679;BME280;51094;53.864;27.676;2023-05-07T00:34:57;100338.50;;;2.98;46.81
64679;BME280;51094;53.864;27.676;2023-05-07T00:37:24;100451.31;;;3.84;47.73
64679;BME280;51094;53.864;27.676;2023-05-07T00:39:51;100422.72;;;3.59;47.46
64679;BME280;51094;53.864;27.676;2023-05-07T00:42:17;100455.03;;;3.71;48.03
64679;BME280;51094;53.864;27.676;2023-05-07T00:44:46;100356.25;;;3.07;47.45
64679;BME280;51094;53.864;27.676;2023-05-07T00:47:14;100457.06;;;3.58;48.53
64679;BME280;51094;53.864;27.676;2023-05-07T00:49:42;100477.72;;;3.54;48.40
64679;BME280;51094;53.864;27.676;2023-05-07T00:52:12;100460.59;;;3.53;48.54
64679;BME280;51094;53.864;27.676;2023-05-07T00:54:41;100332.25;;;2.70;48.04
64679;BME280;51094;53.864;27.676;2023-05-07T00:57:09;100457.22;;;3.51;48.18
64679;BME280;51094;53.864;27.676;2023-05-07T00:59:38;100286.94;;;2.27;48.02
64679;BME280;51094;53.864;27.676;2023-05-07T01:02:05;100448.25;;;3.31;48.85
64679;BME280;51094;53.864;27.676;2023-05-07T01:04:32;100348.38;;;2.76;48.04
64679;BME280;51094;53.864;27.676;2023-05-07T01:07:00;100405.38;;;2.95;48.25
64679;BME280;51094;53.864;27.676;2023-05-07T01:09:28;100368.66;;;2.90;48.66
64679;BME280;51094;53.864;27.676;2023-05-07T01:11:56;100433.00;;;3.24;48.40
64679;BME280;51094;53.864;27.676;2023-05-07T01:14:41;100378.13;;;2.88;48.54
64679;BME280;51094;53.864;27.676;2023-05-07T01:17:08;100226.75;;;2.03;48.46
64679;BME280;51094;53.864;27.676;2023-05-07T01:19:36;100435.03;;;3.08;47.98
64679;BME280;51094;53.864;27.676;2023-05-07T01:22:09;100485.00;;;3.37;48.77
64679;BME280;51094;53.864;27.676;2023-05-07T01:24:50;100473.91;;;3.34;48.39
64679;BME280;51094;53.864;27.676;2023-05-07T01:27:20;100374.19;;;2.70;47.79
64679;BME280;51094;53.864;27.676;2023-05-07T01:29:49;100502.19;;;3.34;47.58
64679;BME280;51094;53.864;27.676;2023-05-07T01:32:18;100513.75;;;3.14;48.06
64679;BME280;51094;53.864;27.676;2023-05-07T01:34:48;100419.03;;;2.97;48.03
64679;BME280;51094;53.864;27.676;2023-05-07T01:37:17;100449.31;;;3.21;48.28
64679;BME280;51094;53.864;27.676;2023-05-07T01:39:44;100375.09;;;2.67;48.63
64679;BME280;51094;53.864;27.676;2023-05-07T01:42:13;100471.44;;;3.28;48.63
64679;BME280;51094;53.864;27.676;2023-05-07T01:44:40;100463.56;;;2.97;48.62
64679;BME280;51094;53.864;27.676;2023-05-07T01:47:08;100341.66;;;2.29;48.55
64679;BME280;51094;53.864;27.676;2023-05-07T01:49:35;100431.31;;;2.83;49.34
64679;BME280;51094;53.864;27.676;2023-05-07T01:52:02;100466.97;;;2.98;49.54
64679;BME280;51094;53.864;27.676;2023-05-07T01:54:31;100478.94;;;2.99;49.55
64679;BME280;51094;53.864;27.676;2023-05-07T01:56:59;100311.31;;;2.08;49.13
64679;BME280;51094;53.864;27.676;2023-05-07T01:59:26;100456.75;;;2.95;49.23
64679;BME280;51094;53.864;27.676;2023-05-07T02:01:53;100402.72;;;2.58;48.93
64679;BME280;51094;53.864;27.676;2023-05-07T02:04:20;100459.28;;;2.96;48.97
64679;BME280;51094;53.864;27.676;2023-05-07T02:06:47;100462.75;;;2.95;49.19
64679;BME280;51094;53.864;27.676;2023-05-07T02:09:15;100266.47;;;1.82;48.96
64679;BME280;51094;53.864;27.676;2023-05-07T02:11:46;100197.47;;;1.25;49.38
64679;BME280;51094;53.864;27.676;2023-05-07T02:14:22;100473.97;;;2.90;49.26
64679;BME280;51094;53.864;27.676;2023-05-07T02:16:49;100505.66;;;2.90;49.15
64679;BME280;51094;53.864;27.676;2023-05-07T02:19:16;100367.50;;;2.20;49.16
64679;BME280;51094;53.864;27.676;2023-05-07T02:21:43;100461.31;;;2.81;49.18
64679;BME280;51094;53.864;27.676;2023-05-07T02:24:10;100332.31;;;1.82;49.53
64679;BME280;51094;53.864;27.676;2023-05-07T02:26:36;100320.88;;;1.99;49.42
64679;BME280;51094;53.864;27.676;2023-05-07T02:29:03;100486.84;;;2.88;49.37
64679;BME280;51094;53.864;27.676;2023-05-07T02:31:31;100408.41;;;2.29;49.36
64679;BME280;51094;53.864;27.676;2023-05-07T02:33:58;100309.97;;;1.88;50.06
64679;BME280;51094;53.864;27.676;2023-05-07T02:40:02;100350.81;;;1.99;49.62
64679;BME280;51094;53.864;27.676;2023-05-07T02:42:30;100480.16;;;2.81;49.04
64679;BME280;51094;53.864;27.676;2023-05-07T02:44:57;100385.41;;;2.23;49.56
64679;BME280;51094;53.864;27.676;2023-05-07T02:47:25;100514.31;;;2.85;49.61
64679;BME280;51094;53.864;27.676;2023-05-07T02:49:54;100423.31;;;2.55;49.90
64679;BME280;51094;53.864;27.676;2023-05-07T02:52:22;100466.44;;;2.81;49.64
64679;BME280;51094;53.864;27.676;2023-05-07T02:54:48;100475.94;;;2.77;49.58
64679;BME280;51094;53.864;27.676;2023-05-07T02:57:15;100407.25;;;2.45;49.77
64679;BME280;51094;53.864;27.676;2023-05-07T02:59:42;100392.88;;;2.35;49.33
64679;BME280;51094;53.864;27.676;2023-05-07T03:02:11;100469.09;;;2.78;49.32
64679;BME280;51094;53.864;27.676;2023-05-07T03:04:39;100470.03;;;2.72;50.19
64679;BME280;51094;53.864;27.676;2023-05-07T03:07:06;100441.50;;;2.44;49.66
64679;BME280;51094;53.864;27.676;2023-05-07T03:09:33;100475.25;;;2.67;49.90
64679;BME280;51094;53.864;27.676;2023-05-07T03:12:00;100487.09;;;2.76;50.15
64679;BME280;51094;53.864;27.676;2023-05-07T03:14:28;100472.41;;;2.83;49.92
64679;BME280;51094;53.864;27.676;2023-05-07T03:16:55;100483.50;;;2.85;50.04
64679;BME280;51094;53.864;27.676;2023-05-07T03:19:22;100487.69;;;2.90;50.17
64679;BME280;51094;53.864;27.676;2023-05-07T03:21:49;100488.75;;;2.79;49.58
64679;BME280;51094;53.864;27.676;2023-05-07T03:24:16;100464.69;;;2.83;50.03
64679;BME280;51094;53.864;27.676;2023-05-07T03:26:43;100484.97;;;2.98;49.76
64679;BME280;51094;53.864;27.676;2023-05-07T03:29:09;100480.19;;;2.78;49.69
64679;BME280;51094;53.864;27.676;2023-05-07T03:31:36;100481.63;;;2.93;50.03
64679;BME280;51094;53.864;27.676;2023-05-07T03:34:04;100440.03;;;2.74;50.30
64679;BME280;51094;53.864;27.676;2023-05-07T03:36:30;100495.03;;;3.07;50.07
64679;BME280;51094;53.864;27.676;2023-05-07T03:38:57;100490.91;;;3.00;49.54
64679;BME280;51094;53.864;27.676;2023-05-07T03:41:32;100391.69;;;2.53;49.62
64679;BME280;51094;53.864;27.676;2023-05-07T03:44:00;100500.50;;;2.92;49.50
64679;BME280;51094;53.864;27.676;2023-05-07T03:46:27;100499.56;;;3.36;49.30
64679;BME280;51094;53.864;27.676;2023-05-07T03:48:55;100449.59;;;3.09;49.27
64679;BME280;51094;53.864;27.676;2023-05-07T03:51:24;100443.59;;;3.09;49.54
64679;BME280;51094;53.864;27.676;2023-05-07T03:53:53;100285.53;;;2.14;49.44
64679;BME280;51094;53.864;27.676;2023-05-07T03:56:21;100511.09;;;3.57;49.08
64679;BME280;51094;53.864;27.676;2023-05-07T03:58:53;100522.13;;;3.62;48.70
64679;BME280;51094;53.864;27.676;2023-05-07T04:01:20;100538.28;;;3.68;48.88
64679;BME280;51094;53.864;27.676;2023-05-07T04:03:47;100349.34;;;2.71;48.65
64679;BME280;51094;53.864;27.676;2023-05-07T04:06:16;100465.69;;;3.56;48.53
64679;BME280;51094;53.864;27.676;2023-05-07T04:08:46;100466.56;;;3.55;48.08
64679;BME280;51094;53.864;27.676;2023-05-07T04:11:13;100519.09;;;3.83;47.92
64679;BME280;51094;53.864;27.676;2023-05-07T04:13:42;100470.97;;;3.50;48.56
64679;BME280;51094;53.864;27.676;2023-05-07T04:16:12;100491.13;;;3.68;48.28
64679;BME280;51094;53.864;27.676;2023-05-07T04:18:42;100418.41;;;3.24;48.44
64679;BME280;51094;53.864;27.676;2023-05-07T04:21:16;100557.97;;;4.07;47.84
64679;BME280;51094;53.864;27.676;2023-05-07T04:23:44;100521.69;;;4.17;47.98
64679;BME280;51094;53.864;27.676;2023-05-07T04:26:15;100494.41;;;4.10;47.70
64679;BME280;51094;53.864;27.676;2023-05-07T04:28:43;100497.66;;;4.18;47.13
64679;BME280;51094;53.864;27.676;2023-05-07T04:31:11;100304.22;;;2.99;46.85
64679;BME280;51094;53.864;27.676;2023-05-07T04:33:39;100522.47;;;4.55;47.02
64679;BME280;51094;53.864;27.676;2023-05-07T04:36:09;100422.78;;;3.92;46.79
64679;BME280;51094;53.864;27.676;2023-05-07T04:38:42;100526.44;;;4.66;45.75
64679;BME280;51094;53.864;27.676;2023-05-07T04:41:09;100288.13;;;3.26;46.26
64679;BME280;51094;53.864;27.676;2023-05-07T04:43:42;100526.09;;;4.79;46.47
64679;BME280;51094;53.864;27.676;2023-05-07T04:46:11;100529.25;;;4.90;47.25
64679;BME280;51094;53.864;27.676;2023-05-07T04:48:38;100434.34;;;4.42;47.14
64679;BME280;51094;53.864;27.676;2023-05-07T04:51:06;100528.03;;;5.03;46.77
64679;BME280;51094;53.864;27.676;2023-05-07T04:53:33;100526.03;;;5.13;45.90
64679;BME280;51094;53.864;27.676;2023-05-07T04:56:00;100404.94;;;4.51;46.22
64679;BME280;51094;53.864;27.676;2023-05-07T04:58:33;100496.56;;;4.90;44.99
64679;BME280;51094;53.864;27.676;2023-05-07T05:01:00;100474.34;;;5.17;45.28
64679;BME280;51094;53.864;27.676;2023-05-07T05:03:28;100538.41;;;5.60;45.12
64679;BME280;51094;53.864;27.676;2023-05-07T05:05:55;100537.06;;;5.75;46.18
64679;BME280;51094;53.864;27.676;2023-05-07T05:08:22;100540.09;;;5.89;44.78
64679;BME280;51094;53.864;27.676;2023-05-07T05:10:49;100346.38;;;4.85;45.79
64679;BME280;51094;53.864;27.676;2023-05-07T05:13:17;100482.88;;;5.75;44.45
64679;BME280;51094;53.864;27.676;2023-05-07T05:15:45;100538.94;;;6.26;44.23
64679;BME280;51094;53.864;27.676;2023-05-07T05:18:12;100523.72;;;6.17;44.30
64679;BME280;51094;53.864;27.676;2023-05-07T05:20:39;100500.09;;;6.03;42.13
64679;BME280;51094;53.864;27.676;2023-05-07T05:23:07;100337.78;;;5.14;42.49
64679;BME280;51094;53.864;27.676;2023-05-07T05:25:34;100549.63;;;6.42;42.04
64679;BME280;51094;53.864;27.676;2023-05-07T05:28:02;100494.28;;;5.96;40.69
64679;BME280;51094;53.864;27.676;2023-05-07T05:30:30;100315.78;;;4.45;40.92
64679;BME280;51094;53.864;27.676;2023-05-07T05:32:57;100515.28;;;6.38;42.03
64679;BME280;51094;53.864;27.676;2023-05-07T05:35:26;100466.94;;;6.15;42.07
64679;BME280;51094;53.864;27.676;2023-05-07T05:37:53;100551.09;;;6.74;39.71
64679;BME280;51094;53.864;27.676;2023-05-07T05:40:21;100522.38;;;6.56;40.49
64679;BME280;51094;53.864;27.676;2023-05-07T05:42:49;100546.41;;;6.85;41.79
64679;BME280;51094;53.864;27.676;2023-05-07T05:45:16;100531.25;;;6.74;41.71
64679;BME280;51094;53.864;27.676;2023-05-07T05:47:44;100550.97;;;7.01;41.39
64679;BME280;51094;53.864;27.676;2023-05-07T05:50:12;100496.03;;;6.72;40.27
64679;BME280;51094;53.864;27.676;2023-05-07T05:52:39;100176.25;;;4.87;41.78
64679;BME280;51094;53.864;27.676;2023-05-07T05:55:08;100499.59;;;6.92;39.62
64679;BME280;51094;53.864;27.676;2023-05-07T05:57:36;100519.72;;;7.08;40.38
64679;BME280;51094;53.864;27.676;2023-05-07T06:00:06;100534.63;;;7.24;39.98
64679;BME280;51094;53.864;27.676;2023-05-07T06:02:44;100550.91;;;7.50;38.37
64679;BME280;51094;53.864;27.676;2023-05-07T06:05:19;100554.63;;;7.66;39.53
64679;BME280;51094;53.864;27.676;2023-05-07T06:07:52;100549.50;;;7.86;39.14
64679;BME280;51094;53.864;27.676;2023-05-07T06:10:18;100470.56;;;7.53;39.47
64679;BME280;51094;53.864;27.676;2023-05-07T06:12:47;100507.00;;;7.70;38.98
64679;BME280;51094;53.864;27.676;2023-05-07T06:15:15;100556.81;;;7.98;38.44
64679;BME280;51094;53.864;27.676;2023-05-07T06:17:42;100551.75;;;7.95;36.73
64679;BME280;51094;53.864;27.676;2023-05-07T06:20:10;100548.59;;;7.87;38.41
64679;BME280;51094;53.864;27.676;2023-05-07T06:22:39;100553.06;;;8.06;38.91
64679;BME280;51094;53.864;27.676;2023-05-07T06:25:07;100551.69;;;8.19;38.01
64679;BME280;51094;53.864;27.676;2023-05-07T06:27:35;100549.88;;;8.21;38.06
64679;BME280;51094;53.864;27.676;2023-05-07T06:30:02;100516.81;;;8.06;37.41
64679;BME280;51094;53.864;27.676;2023-05-07T06:32:29;100503.66;;;7.88;36.81
64679;BME280;51094;53.864;27.676;2023-05-07T06:34:56;100561.59;;;8.51;39.46
64679;BME280;51094;53.864;27.676;2023-05-07T06:37:23;100550.97;;;8.57;37.34
64679;BME280;51094;53.864;27.676;2023-05-07T06:39:56;100515.44;;;8.39;37.54
64679;BME280;51094;53.864;27.676;2023-05-07T06:42:35;100556.06;;;8.79;36.42
64679;BME280;51094;53.864;27.676;2023-05-07T06:45:23;100554.78;;;8.89;34.75
64679;BME280;51094;53.864;27.676;2023-05-07T06:47:53;100568.72;;;8.87;33.57
64679;BME280;51094;53.864;27.676;2023-05-07T06:50:23;100453.84;;;8.24;34.21
64679;BME280;51094;53.864;27.676;2023-05-07T06:52:54;100554.78;;;8.89;35.87
64679;BME280;51094;53.864;27.676;2023-05-07T06:55:21;100533.38;;;8.84;34.35
64679;BME280;51094;53.864;27.676;2023-05-07T06:57:49;100554.31;;;9.00;33.92
64679;BME280;51094;53.864;27.676;2023-05-07T07:00:18;100564.84;;;8.97;32.34
64679;BME280;51094;53.864;27.676;2023-05-07T07:02:51;100556.97;;;8.98;35.37
64679;BME280;51094;53.864;27.676;2023-05-07T07:05:21;100588.56;;;9.08;33.30
64679;BME280;51094;53.864;27.676;2023-05-07T07:07:49;100580.00;;;9.06;35.97
64679;BME280;51094;53.864;27.676;2023-05-07T07:10:23;100564.53;;;9.23;31.79
64679;BME280;51094;53.864;27.676;2023-05-07T07:12:52;100532.88;;;9.15;32.90
64679;BME280;51094;53.864;27.676;2023-05-07T07:15:22;100563.84;;;9.57;33.02
64679;BME280;51094;53.864;27.676;2023-05-07T07:17:52;100560.59;;;9.71;32.84
64679;BME280;51094;53.864;27.676;2023-05-07T07:20:19;100555.63;;;9.66;31.62
64679;BME280;51094;53.864;27.676;2023-05-07T07:22:49;100566.81;;;9.50;31.09
64679;BME280;51094;53.864;27.676;2023-05-07T07:25:19;100533.97;;;8.91;30.92
64679;BME280;51094;53.864;27.676;2023-05-07T07:27:50;100576.84;;;9.18;33.58
64679;BME280;51094;53.864;27.676;2023-05-07T07:30:20;100554.06;;;9.25;32.77
64679;BME280;51094;53.864;27.676;2023-05-07T07:32:53;100538.63;;;9.22;32.32
64679;BME280;51094;53.864;27.676;2023-05-07T07:35:20;100559.19;;;9.26;32.52
64679;BME280;51094;53.864;27.676;2023-05-07T07:37:48;100504.31;;;9.15;34.22
64679;BME280;51094;53.864;27.676;2023-05-07T07:40:19;100503.84;;;9.45;32.48
64679;BME280;51094;53.864;27.676;2023-05-07T07:42:49;100533.09;;;9.29;31.18
64679;BME280;51094;53.864;27.676;2023-05-07T07:45:16;100555.47;;;9.70;35.12
64679;BME280;51094;53.864;27.676;2023-05-07T07:47:46;100555.69;;;9.84;31.73
64679;BME280;51094;53.864;27.676;2023-05-07T07:50:13;100563.06;;;9.74;30.82
64679;BME280;51094;53.864;27.676;2023-05-07T07:52:58;100556.75;;;9.80;32.20
64679;BME280;51094;53.864;27.676;2023-05-07T07:55:28;100498.69;;;9.62;31.05
64679;BME280;51094;53.864;27.676;2023-05-07T07:58:00;100552.91;;;10.24;34.56
64679;BME280;51094;53.864;27.676;2023-05-07T08:00:27;100486.38;;;10.01;31.12
64679;BME280;51094;53.864;27.676;2023-05-07T08:02:55;100554.03;;;10.53;34.22
64679;BME280;51094;53.864;27.676;2023-05-07T08:05:27;100548.22;;;10.65;32.88
64679;BME280;51094;53.864;27.676;2023-05-07T08:07:54;100515.75;;;10.40;31.73
64679;BME280;51094;53.864;27.676;2023-05-07T08:10:30;100547.88;;;10.39;31.90
64679;BME280;51094;53.864;27.676;2023-05-07T08:13:10;100433.19;;;9.74;32.10
64679;BME280;51094;53.864;27.676;2023-05-07T08:15:39;100543.63;;;10.53;30.50
64679;BME280;51094;53.864;27.676;2023-05-07T08:18:06;100534.09;;;10.37;32.30
64679;BME280;51094;53.864;27.676;2023-05-07T08:20:36;100493.09;;;10.24;30.66
64679;BME280;51094;53.864;27.676;2023-05-07T08:23:11;100540.66;;;10.78;31.36
64679;BME280;51094;53.864;27.676;2023-05-07T08:25:39;100544.28;;;10.91;31.19
64679;BME280;51094;53.864;27.676;2023-05-07T08:28:09;100538.13;;;11.10;31.09
64679;BME280;51094;53.864;27.676;2023-05-07T08:30:38;100540.25;;;11.19;29.91
64679;BME280;51094;53.864;27.676;2023-05-07T08:33:08;100317.53;;;9.67;29.54
64679;BME280;51094;53.864;27.676;2023-05-07T08:35:35;100508.16;;;10.85;31.16
64679;BME280;51094;53.864;27.676;2023-05-07T08:38:02;100527.41;;;11.31;28.37
64679;BME280;51094;53.864;27.676;2023-05-07T08:40:37;100524.47;;;11.22;31.44
64679;BME280;51094;53.864;27.676;2023-05-07T08:43:14;100532.41;;;11.52;29.45
64679;BME280;51094;53.864;27.676;2023-05-07T08:45:46;100530.81;;;11.81;31.73
64679;BME280;51094;53.864;27.676;2023-05-07T08:48:17;100461.66;;;11.44;28.09
64679;BME280;51094;53.864;27.676;2023-05-07T08:50:51;100452.91;;;11.29;27.54
64679;BME280;51094;53.864;27.676;2023-05-07T08:53:21;100504.09;;;11.61;27.64
64679;BME280;51094;53.864;27.676;2023-05-07T08:55:52;100443.84;;;11.20;27.75
64679;BME280;51094;53.864;27.676;2023-05-07T08:58:19;100496.31;;;11.28;27.67
64679;BME280;51094;53.864;27.676;2023-05-07T09:00:47;100548.78;;;11.54;30.57
64679;BME280;51094;53.864;27.676;2023-05-07T09:03:16;100543.75;;;11.82;32.71
64679;BME280;51094;53.864;27.676;2023-05-07T09:05:47;100521.94;;;12.15;31.13
64679;BME280;51094;53.864;27.676;2023-05-07T09:08:16;100519.47;;;12.27;27.26
64679;BME280;51094;53.864;27.676;2023-05-07T09:10:47;100499.22;;;12.17;29.21
64679;BME280;51094;53.864;27.676;2023-05-07T09:13:15;100326.56;;;11.38;29.38
64679;BME280;51094;53.864;27.676;2023-05-07T09:15:45;100506.97;;;13.05;31.07
64679;BME280;51094;53.864;27.676;2023-05-07T09:18:12;100511.88;;;13.25;27.60
64679;BME280;51094;53.864;27.676;2023-05-07T09:20:43;100471.00;;;12.82;29.01
64679;BME280;51094;53.864;27.676;2023-05-07T09:23:10;100517.91;;;12.97;29.99
64679;BME280;51094;53.864;27.676;2023-05-07T09:25:37;100425.22;;;12.62;27.36
64679;BME280;51094;53.864;27.676;2023-05-07T09:28:12;100524.59;;;13.44;29.76
64679;BME280;51094;53.864;27.676;2023-05-07T09:30:41;100469.53;;;12.92;29.86
64679;BME280;51094;53.864;27.676;2023-05-07T09:33:11;100500.34;;;13.14;29.08
64679;BME280;51094;53.864;27.676;2023-05-07T09:35:44;100479.91;;;13.49;28.98
64679;BME280;51094;53.864;27.676;2023-05-07T09:38:17;100447.44;;;13.92;27.87
64679;BME280;51094;53.864;27.676;2023-05-07T09:41:10;100502.78;;;14.26;27.20
64679;BME280;51094;53.864;27.676;2023-05-07T09:44:10;100470.28;;;14.55;26.76
64679;BME280;51094;53.864;27.676;2023-05-07T09:46:47;100520.75;;;14.83;28.02
64679;BME280;51094;53.864;27.676;2023-05-07T09:49:23;100415.38;;;14.16;27.09
64679;BME280;51094;53.864;27.676;2023-05-07T09:52:00;100546.81;;;15.22;30.17
64679;BME280;51094;53.864;27.676;2023-05-07T09:54:32;100513.41;;;15.62;26.07
64679;BME280;51094;53.864;27.676;2023-05-07T09:57:05;100501.41;;;15.71;24.06
64679;BME280;51094;53.864;27.676;2023-05-07T09:59:37;100490.94;;;15.35;29.26
64679;BME280;51094;53.864;27.676;2023-05-07T10:02:09;100453.69;;;15.42;27.36
64679;BME280;51094;53.864;27.676;2023-05-07T10:04:46;100499.22;;;16.13;25.60
64679;BME280;51094;53.864;27.676;2023-05-07T10:07:19;100500.31;;;16.56;24.34
64679;BME280;51094;53.864;27.676;2023-05-07T10:09:53;100394.19;;;15.79;22.23
64679;BME280;51094;53.864;27.676;2023-05-07T10:12:31;100471.72;;;16.65;23.72
64679;BME280;51094;53.864;27.676;2023-05-07T10:15:11;100467.97;;;16.45;23.19
64679;BME280;51094;53.864;27.676;2023-05-07T10:17:48;100485.03;;;16.61;26.03
64679;BME280;51094;53.864;27.676;2023-05-07T10:20:16;100457.44;;;16.56;22.74
64679;BME280;51094;53.864;27.676;2023-05-07T10:22:48;100470.84;;;16.18;23.97
64679;BME280;51094;53.864;27.676;2023-05-07T10:25:28;100488.38;;;16.63;23.21
64679;BME280;51094;53.864;27.676;2023-05-07T10:28:05;100358.75;;;16.31;23.31
64679;BME280;51094;53.864;27.676;2023-05-07T10:33:15;100483.56;;;18.12;20.98
64679;BME280;51094;53.864;27.676;2023-05-07T10:35:46;100488.81;;;18.12;22.68
64679;BME280;51094;53.864;27.676;2023-05-07T10:38:17;100450.75;;;17.84;24.05
64679;BME280;51094;53.864;27.676;2023-05-07T10:40:46;100463.66;;;17.87;20.94
64679;BME280;51094;53.864;27.676;2023-05-07T10:43:16;100445.56;;;17.62;24.16
64679;BME280;51094;53.864;27.676;2023-05-07T10:46:20;100458.00;;;18.03;22.43
64679;BME280;51094;53.864;27.676;2023-05-07T10:52:18;100482.84;;;18.73;22.02
64679;BME280;51094;53.864;27.676;2023-05-07T10:57:44;100472.34;;;21.23;20.00
64679;BME280;51094;53.864;27.676;2023-05-07T11:03:08;100472.50;;;21.67;18.83
64679;BME280;51094;53.864;27.676;2023-05-07T11:06:14;100470.75;;;22.55;18.08
64679;BME280;51094;53.864;27.676;2023-05-07T11:08:56;100451.03;;;22.49;17.70
64679;BME280;51094;53.864;27.676;2023-05-07T11:11:50;100466.28;;;22.55;16.72
64679;BME280;51094;53.864;27.676;2023-05-07T11:17:21;100477.41;;;22.33;18.79
64679;BME280;51094;53.864;27.676;2023-05-07T11:19:56;100453.25;;;22.88;15.29
64679;BME280;51094;53.864;27.676;2023-05-07T11:22:49;100426.25;;;24.65;16.09
64679;BME280;51094;53.864;27.676;2023-05-07T11:25:26;100311.38;;;24.69;13.44
64679;BME280;51094;53.864;27.676;2023-05-07T11:28:07;100352.53;;;26.48;12.51
64679;BME280;51094;53.864;27.676;2023-05-07T11:30:43;100470.19;;;28.55;11.30
64679;BME280;51094;53.864;27.676;2023-05-07T11:33:19;100376.47;;;29.57;10.18
64679;BME280;51094;53.864;27.676;2023-05-07T11:35:53;100450.22;;;31.49;11.16
64679;BME280;51094;53.864;27.676;2023-05-07T11:38:23;100378.13;;;32.14;9.12
64679;BME280;51094;53.864;27.676;2023-05-07T11:40:55;100366.00;;;33.15;8.99
64679;BME280;51094;53.864;27.676;2023-05-07T11:43:22;100429.25;;;35.00;9.11
64679;BME280;51094;53.864;27.676;2023-05-07T11:48:34;100442.34;;;37.95;7.51
64679;BME280;51094;53.864;27.676;2023-05-07T11:51:05;100458.53;;;38.12;6.32
64679;BME280;51094;53.864;27.676;2023-05-07T11:53:40;100450.53;;;37.42;6.13
64679;BME280;51094;53.864;27.676;2023-05-07T11:56:14;100425.75;;;37.06;5.77
64679;BME280;51094;53.864;27.676;2023-05-07T11:58:46;100459.81;;;38.42;5.58
64679;BME280;51094;53.864;27.676;2023-05-07T12:01:14;100426.53;;;39.95;5.85
64679;BME280;51094;53.864;27.676;2023-05-07T12:03:44;100449.25;;;40.70;5.51
64679;BME280;51094;53.864;27.676;2023-05-07T12:06:14;100434.78;;;40.80;5.46
64679;BME280;51094;53.864;27.676;2023-05-07T12:08:43;100380.47;;;39.43;5.19
64679;BME280;51094;53.864;27.676;2023-05-07T12:11:22;100445.56;;;39.60;4.94
64679;BME280;51094;53.864;27.676;2023-05-07T12:13:49;100359.00;;;39.31;5.53
64679;BME280;51094;53.864;27.676;2023-05-07T12:16:19;100423.22;;;39.42;4.92
64679;BME280;51094;53.864;27.676;2023-05-07T12:18:49;100455.88;;;40.44;4.86
64679;BME280;51094;53.864;27.676;2023-05-07T12:21:16;100440.47;;;41.77;4.94
64679;BME280;51094;53.864;27.676;2023-05-07T12:23:43;100435.56;;;42.79;4.13
64679;BME280;51094;53.864;27.676;2023-05-07T12:26:11;100384.16;;;41.81;4.39
64679;BME280;51094;53.864;27.676;2023-05-07T12:28:38;100431.41;;;41.81;4.11
64679;BME280;51094;53.864;27.676;2023-05-07T12:31:08;100427.19;;;41.94;3.22
64679;BME280;51094;53.864;27.676;2023-05-07T12:33:37;100367.09;;;41.65;3.44
64679;BME280;51094;53.864;27.676;2023-05-07T12:36:08;100406.66;;;42.02;3.97
64679;BME280;51094;53.864;27.676;2023-05-07T12:38:39;100428.50;;;42.97;3.76
64679;BME280;51094;53.864;27.676;2023-05-07T12:41:09;100445.72;;;42.98;2.87
64679;BME280;51094;53.864;27.676;2023-05-07T12:43:44;100239.97;;;40.52;3.45
64679;BME280;51094;53.864;27.676;2023-05-07T12:46:14;100418.34;;;40.95;3.77
64679;BME280;51094;53.864;27.676;2023-05-07T12:48:46;100216.66;;;37.35;5.02
64679;BME280;51094;53.864;27.676;2023-05-07T12:51:13;100409.44;;;37.55;5.19
64679;BME280;51094;53.864;27.676;2023-05-07T12:53:42;100415.28;;;35.65;6.85
64679;BME280;51094;53.864;27.676;2023-05-07T12:56:10;100252.28;;;33.59;6.75
64679;BME280;51094;53.864;27.676;2023-05-07T12:58:40;100353.03;;;34.35;6.27
64679;BME280;51094;53.864;27.676;2023-05-07T13:01:10;100424.69;;;35.91;6.59
64679;BME280;51094;53.864;27.676;2023-05-07T13:03:38;100415.88;;;33.65;6.17
64679;BME280;51094;53.864;27.676;2023-05-07T13:06:09;100267.56;;;30.66;7.14
64679;BME280;51094;53.864;27.676;2023-05-07T13:08:38;100409.34;;;32.95;7.10
64679;BME280;51094;53.864;27.676;2023-05-07T13:11:08;100399.38;;;33.32;6.76
64679;BME280;51094;53.864;27.676;2023-05-07T13:13:38;100423.28;;;33.40;6.83
64679;BME280;51094;53.864;27.676;2023-05-07T13:16:07;100418.16;;;29.72;7.99
64679;BME280;51094;53.864;27.676;2023-05-07T13:18:35;100385.31;;;27.07;9.51
64679;BME280;51094;53.864;27.676;2023-05-07T13:21:02;100302.50;;;27.01;10.42
64679;BME280;51094;53.864;27.676;2023-05-07T13:23:32;100402.91;;;30.13;10.42